HIDDEN DAM (HENSLEY) (HID)

Elevation: 561' · FRESNO R basin · Operator: US Army Corps of Engineers

Provisional data, subject to change.
Query executed Sunday at 22:55:38   clock

Select a sensor type for a plot of data.
Note: Reservoir Flows are daily averages.

Earlier

Date RES ELE    STORAGE    RES CHG    TOC STO    ABV TOC    OUTFLOW    INFLOW    PPT INC    TEMP MN    TEMP MX    WINDLEN    EVP PAN   
 FEET   AF   AF   AF   AF   CFS   CFS   INCHES   DEG F   DEG F   MILES   INCHES  
02/02/2015 450.98 5858 9 38095 -32237 0 5 0.00 6 19 99 0.09
02/03/2015 451.02 5871 13 38393 -32522 0 7 0.00 7 20 107 0.10
02/04/2015 451.06 5883 12 38690 -32807 0 7 0.00 8 26 132 0.15
02/05/2015 451.61 6058 175 38988 -32930 0 90 0.00 10 25 116 0.14
02/06/2015 451.16 5915 -143 39286 -33371 0 -71 0.46 13 22 195 0.16
02/07/2015 451.22 5934 19 39404 -33470 0 10 0.21 13 19 177 0.06
02/08/2015 451.35 5975 41 38479 -32504 0 21 0.09 13 21 170 0.08
02/09/2015 451.62 6062 87 38789 -32727 0 45 0.02 10 20 122 0.10
02/10/2015 451.91 6155 93 39212 -33058 0 47 0.00 5 15 79 0.06
02/11/2015 452.08 6211 56 39637 -- 0 29 0.00 6 19 101 0.10
02/12/2015 452.22 6257 46 40046 -33789 0 24 0.00 7 23 100 0.12
02/13/2015 452.32 6290 33 40445 -34155 0 18 0.00 8 23 114 0.13
02/14/2015 452.40 6316 26 40867 -34551 0 14 0.01 9 25 100 0.13
02/15/2015 452.48 6343 27 41302 -34959 0 15 0.00 9 23 106 0.13
02/16/2015 452.54 6363 20 41738 -35375 0 11 0.00 9 23 111 0.13
02/17/2015 452.60 6383 20 42174 -35791 0 11 0.00 9 23 10 0.12
02/18/2015 452.65 6399 16 42611 -36212 0 9 0.00 6 18 70 0.07
02/19/2015 452.71 6419 -- 43048 -- 0 11 0.00 8 20 -- 0.10
02/20/2015 452.76 6436 -- 43452 -37016 0 9 0.00 7 12 71 0.04
02/21/2015 -- -- -- 43750 -- -- -- -- -- -- -- --
02/22/2015 452.87 6473 -- 44048 -- 0 12 0.01 7 12 71 0.04
02/23/2015 452.92 6490 -- 44345 -37855 0 9 0.03 6 15 98 0.07
02/24/2015 452.96 6503 13 44643 -38140 0 8 0.01 3 18 105 0.12
02/25/2015 452.99 6513 -- 44940 -38427 0 6 0.00 5 18 106 0.12
02/26/2015 453.03 6527 14 45238 -38711 0 8 0.00 6 19 106 0.12
02/27/2015 453.07 6541 14 45536 -38995 0 8 0.00 7 19 109 0.12
02/28/2015 453.11 6554 13 45833 -39279 -- -- -- -- -- -- --
03/01/2015 -- -- -- -- -- -- -- -- -- -- -- --

Later | Latest

Warning! This data is preliminary and subject to revision.

Show HID Map | Plot HID Data | 1 Month HID Data | Real-Time HID Data | HID Info